sensor_id;sensor_type;location;lat;lon;timestamp;P1;durP1;ratioP1;P2;durP2;ratioP2
2680;SDS011;1350;42.134;24.708;2023-05-10T00:01:20;10.82;;;8.50;;
2680;SDS011;1350;42.134;24.708;2023-05-10T00:03:47;10.57;;;8.60;;
2680;SDS011;1350;42.134;24.708;2023-05-10T00:06:15;10.40;;;9.20;;
2680;SDS011;1350;42.134;24.708;2023-05-10T00:08:42;13.50;;;8.63;;
2680;SDS011;1350;42.134;24.708;2023-05-10T00:11:10;15.23;;;9.07;;
2680;SDS011;1350;42.134;24.708;2023-05-10T00:13:37;12.85;;;8.23;;
2680;SDS011;1350;42.134;24.708;2023-05-10T00:16:04;18.20;;;11.15;;
2680;SDS011;1350;42.134;24.708;2023-05-10T00:18:31;13.85;;;9.48;;
2680;SDS011;1350;42.134;24.708;2023-05-10T00:20:58;12.70;;;8.45;;
2680;SDS011;1350;42.134;24.708;2023-05-10T00:23:26;17.70;;;9.63;;
2680;SDS011;1350;42.134;24.708;2023-05-10T00:25:52;13.65;;;9.52;;
2680;SDS011;1350;42.134;24.708;2023-05-10T00:28:19;14.07;;;9.45;;
2680;SDS011;1350;42.134;24.708;2023-05-10T00:30:46;12.30;;;8.60;;
2680;SDS011;1350;42.134;24.708;2023-05-10T00:33:13;12.60;;;8.98;;
2680;SDS011;1350;42.134;24.708;2023-05-10T00:35:39;11.05;;;8.90;;
2680;SDS011;1350;42.134;24.708;2023-05-10T00:38:06;13.05;;;8.73;;
2680;SDS011;1350;42.134;24.708;2023-05-10T00:40:35;12.38;;;8.82;;
2680;SDS011;1350;42.134;24.708;2023-05-10T00:43:02;13.43;;;8.90;;
2680;SDS011;1350;42.134;24.708;2023-05-10T00:45:29;10.80;;;8.15;;
2680;SDS011;1350;42.134;24.708;2023-05-10T00:47:56;13.07;;;7.63;;
2680;SDS011;1350;42.134;24.708;2023-05-10T00:50:24;18.15;;;9.52;;
2680;SDS011;1350;42.134;24.708;2023-05-10T00:52:51;12.85;;;8.10;;
2680;SDS011;1350;42.134;24.708;2023-05-10T00:55:18;10.77;;;8.10;;
2680;SDS011;1350;42.134;24.708;2023-05-10T00:57:47;11.20;;;8.15;;
2680;SDS011;1350;42.134;24.708;2023-05-10T01:00:14;14.75;;;8.77;;
2680;SDS011;1350;42.134;24.708;2023-05-10T01:02:43;13.23;;;7.95;;
2680;SDS011;1350;42.134;24.708;2023-05-10T01:05:11;13.88;;;9.43;;
2680;SDS011;1350;42.134;24.708;2023-05-10T01:07:38;14.52;;;8.55;;
2680;SDS011;1350;42.134;24.708;2023-05-10T01:10:05;13.05;;;8.55;;
2680;SDS011;1350;42.134;24.708;2023-05-10T01:12:33;12.18;;;8.43;;
2680;SDS011;1350;42.134;24.708;2023-05-10T01:15:04;13.25;;;8.63;;
2680;SDS011;1350;42.134;24.708;2023-05-10T01:17:33;13.98;;;8.63;;
2680;SDS011;1350;42.134;24.708;2023-05-10T01:20:00;16.92;;;10.85;;
2680;SDS011;1350;42.134;24.708;2023-05-10T01:22:37;13.95;;;10.00;;
2680;SDS011;1350;42.134;24.708;2023-05-10T01:25:27;14.13;;;9.90;;
2680;SDS011;1350;42.134;24.708;2023-05-10T01:28:15;14.43;;;9.90;;
2680;SDS011;1350;42.134;24.708;2023-05-10T01:34:09;15.38;;;11.90;;
2680;SDS011;1350;42.134;24.708;2023-05-10T01:36:40;14.38;;;10.65;;
2680;SDS011;1350;42.134;24.708;2023-05-10T01:39:14;19.63;;;11.38;;
2680;SDS011;1350;42.134;24.708;2023-05-10T01:41:45;16.63;;;12.68;;
2680;SDS011;1350;42.134;24.708;2023-05-10T01:44:29;19.15;;;12.38;;
2680;SDS011;1350;42.134;24.708;2023-05-10T01:47:03;18.83;;;13.07;;
2680;SDS011;1350;42.134;24.708;2023-05-10T01:49:36;18.40;;;13.38;;
2680;SDS011;1350;42.134;24.708;2023-05-10T01:52:08;16.35;;;11.38;;
2680;SDS011;1350;42.134;24.708;2023-05-10T01:54:38;17.10;;;12.85;;
2680;SDS011;1350;42.134;24.708;2023-05-10T01:57:09;14.48;;;12.13;;
2680;SDS011;1350;42.134;24.708;2023-05-10T01:59:39;15.20;;;11.70;;
2680;SDS011;1350;42.134;24.708;2023-05-10T02:02:09;19.00;;;14.30;;
2680;SDS011;1350;42.134;24.708;2023-05-10T02:04:39;19.85;;;13.90;;
2680;SDS011;1350;42.134;24.708;2023-05-10T02:07:07;17.65;;;12.95;;
2680;SDS011;1350;42.134;24.708;2023-05-10T02:09:35;19.05;;;14.10;;
2680;SDS011;1350;42.134;24.708;2023-05-10T02:12:04;19.90;;;12.90;;
2680;SDS011;1350;42.134;24.708;2023-05-10T02:14:34;14.95;;;11.50;;
2680;SDS011;1350;42.134;24.708;2023-05-10T02:17:03;19.42;;;13.02;;
2680;SDS011;1350;42.134;24.708;2023-05-10T02:19:32;18.67;;;12.43;;
2680;SDS011;1350;42.134;24.708;2023-05-10T02:22:01;15.98;;;12.70;;
2680;SDS011;1350;42.134;24.708;2023-05-10T02:24:30;20.92;;;12.30;;
2680;SDS011;1350;42.134;24.708;2023-05-10T02:26:58;25.05;;;12.40;;
2680;SDS011;1350;42.134;24.708;2023-05-10T02:29:26;16.85;;;12.75;;
2680;SDS011;1350;42.134;24.708;2023-05-10T02:31:54;17.90;;;14.20;;
2680;SDS011;1350;42.134;24.708;2023-05-10T02:34:23;19.33;;;12.63;;
2680;SDS011;1350;42.134;24.708;2023-05-10T02:36:52;17.17;;;11.43;;
2680;SDS011;1350;42.134;24.708;2023-05-10T02:39:21;20.77;;;13.80;;
2680;SDS011;1350;42.134;24.708;2023-05-10T02:41:49;20.60;;;13.30;;
2680;SDS011;1350;42.134;24.708;2023-05-10T02:44:17;17.13;;;12.70;;
2680;SDS011;1350;42.134;24.708;2023-05-10T02:46:45;32.13;;;12.50;;
2680;SDS011;1350;42.134;24.708;2023-05-10T02:49:13;18.15;;;11.95;;
2680;SDS011;1350;42.134;24.708;2023-05-10T02:51:40;17.45;;;10.98;;
2680;SDS011;1350;42.134;24.708;2023-05-10T02:54:10;17.77;;;13.40;;
2680;SDS011;1350;42.134;24.708;2023-05-10T02:56:42;18.23;;;12.82;;
2680;SDS011;1350;42.134;24.708;2023-05-10T02:59:16;19.58;;;11.85;;
2680;SDS011;1350;42.134;24.708;2023-05-10T03:01:43;16.52;;;12.07;;
2680;SDS011;1350;42.134;24.708;2023-05-10T03:04:09;21.23;;;13.70;;
2680;SDS011;1350;42.134;24.708;2023-05-10T03:06:36;23.38;;;11.90;;
2680;SDS011;1350;42.134;24.708;2023-05-10T03:09:03;21.80;;;12.32;;
2680;SDS011;1350;42.134;24.708;2023-05-10T03:11:32;17.95;;;12.05;;
2680;SDS011;1350;42.134;24.708;2023-05-10T03:14:13;16.48;;;12.23;;
2680;SDS011;1350;42.134;24.708;2023-05-10T03:16:50;15.63;;;10.90;;
2680;SDS011;1350;42.134;24.708;2023-05-10T03:19:24;17.35;;;10.98;;
2680;SDS011;1350;42.134;24.708;2023-05-10T03:21:53;15.57;;;11.05;;
2680;SDS011;1350;42.134;24.708;2023-05-10T03:24:25;16.42;;;11.65;;
2680;SDS011;1350;42.134;24.708;2023-05-10T03:26:54;20.52;;;11.60;;
2680;SDS011;1350;42.134;24.708;2023-05-10T03:29:24;15.20;;;12.20;;
2680;SDS011;1350;42.134;24.708;2023-05-10T03:31:52;17.38;;;10.68;;
2680;SDS011;1350;42.134;24.708;2023-05-10T03:34:22;18.83;;;13.85;;
2680;SDS011;1350;42.134;24.708;2023-05-10T03:36:49;20.02;;;10.45;;
2680;SDS011;1350;42.134;24.708;2023-05-10T03:39:16;62.65;;;15.90;;
2680;SDS011;1350;42.134;24.708;2023-05-10T03:41:43;17.25;;;11.52;;
2680;SDS011;1350;42.134;24.708;2023-05-10T03:44:10;19.27;;;11.98;;
2680;SDS011;1350;42.134;24.708;2023-05-10T03:46:38;15.85;;;11.63;;
2680;SDS011;1350;42.134;24.708;2023-05-10T03:49:04;15.73;;;11.10;;
2680;SDS011;1350;42.134;24.708;2023-05-10T03:51:31;19.95;;;12.05;;
2680;SDS011;1350;42.134;24.708;2023-05-10T03:53:58;18.20;;;12.80;;
2680;SDS011;1350;42.134;24.708;2023-05-10T03:56:25;17.08;;;12.40;;
2680;SDS011;1350;42.134;24.708;2023-05-10T03:58:51;21.55;;;11.32;;
2680;SDS011;1350;42.134;24.708;2023-05-10T04:01:18;21.08;;;11.70;;
2680;SDS011;1350;42.134;24.708;2023-05-10T04:03:46;19.75;;;11.60;;
2680;SDS011;1350;42.134;24.708;2023-05-10T04:06:13;16.75;;;11.55;;
2680;SDS011;1350;42.134;24.708;2023-05-10T04:08:40;18.05;;;11.30;;
2680;SDS011;1350;42.134;24.708;2023-05-10T04:11:06;22.58;;;12.50;;
2680;SDS011;1350;42.134;24.708;2023-05-10T04:13:33;15.15;;;10.45;;
2680;SDS011;1350;42.134;24.708;2023-05-10T04:16:00;15.52;;;11.07;;
2680;SDS011;1350;42.134;24.708;2023-05-10T04:18:27;17.05;;;11.32;;
2680;SDS011;1350;42.134;24.708;2023-05-10T04:20:55;16.92;;;11.20;;
2680;SDS011;1350;42.134;24.708;2023-05-10T04:23:22;17.67;;;11.88;;
2680;SDS011;1350;42.134;24.708;2023-05-10T04:25:49;20.85;;;11.52;;
2680;SDS011;1350;42.134;24.708;2023-05-10T04:28:15;18.60;;;10.32;;
2680;SDS011;1350;42.134;24.708;2023-05-10T04:30:43;22.42;;;10.82;;
2680;SDS011;1350;42.134;24.708;2023-05-10T04:33:10;16.45;;;11.07;;
2680;SDS011;1350;42.134;24.708;2023-05-10T04:35:37;19.50;;;11.30;;
2680;SDS011;1350;42.134;24.708;2023-05-10T04:38:06;17.27;;;12.68;;
2680;SDS011;1350;42.134;24.708;2023-05-10T04:40:33;16.95;;;11.20;;
2680;SDS011;1350;42.134;24.708;2023-05-10T04:43:00;16.02;;;10.40;;
2680;SDS011;1350;42.134;24.708;2023-05-10T04:45:27;17.92;;;11.93;;
2680;SDS011;1350;42.134;24.708;2023-05-10T04:47:54;15.98;;;10.10;;
2680;SDS011;1350;42.134;24.708;2023-05-10T04:50:20;16.10;;;11.05;;
2680;SDS011;1350;42.134;24.708;2023-05-10T04:52:47;15.45;;;10.38;;
2680;SDS011;1350;42.134;24.708;2023-05-10T04:55:15;15.35;;;9.75;;
2680;SDS011;1350;42.134;24.708;2023-05-10T04:57:42;17.15;;;10.60;;
2680;SDS011;1350;42.134;24.708;2023-05-10T05:00:10;16.52;;;10.43;;
2680;SDS011;1350;42.134;24.708;2023-05-10T05:02:37;15.88;;;9.98;;
2680;SDS011;1350;42.134;24.708;2023-05-10T05:05:04;15.07;;;11.25;;
2680;SDS011;1350;42.134;24.708;2023-05-10T05:07:32;14.75;;;10.00;;
2680;SDS011;1350;42.134;24.708;2023-05-10T05:09:58;16.85;;;10.18;;
2680;SDS011;1350;42.134;24.708;2023-05-10T05:12:26;16.60;;;9.80;;
2680;SDS011;1350;42.134;24.708;2023-05-10T05:14:53;25.73;;;12.55;;
2680;SDS011;1350;42.134;24.708;2023-05-10T05:17:20;13.20;;;10.27;;
2680;SDS011;1350;42.134;24.708;2023-05-10T05:19:46;16.80;;;10.45;;
2680;SDS011;1350;42.134;24.708;2023-05-10T05:22:13;15.73;;;10.52;;
2680;SDS011;1350;42.134;24.708;2023-05-10T05:24:40;17.45;;;9.50;;
2680;SDS011;1350;42.134;24.708;2023-05-10T05:27:07;40.95;;;22.65;;
2680;SDS011;1350;42.134;24.708;2023-05-10T05:29:35;19.10;;;10.85;;
2680;SDS011;1350;42.134;24.708;2023-05-10T05:32:01;44.90;;;25.98;;
2680;SDS011;1350;42.134;24.708;2023-05-10T05:34:28;17.83;;;11.27;;
2680;SDS011;1350;42.134;24.708;2023-05-10T05:36:55;22.90;;;16.80;;
2680;SDS011;1350;42.134;24.708;2023-05-10T05:39:22;17.45;;;10.23;;
2680;SDS011;1350;42.134;24.708;2023-05-10T05:41:49;25.65;;;12.50;;
2680;SDS011;1350;42.134;24.708;2023-05-10T05:44:15;16.73;;;11.30;;
2680;SDS011;1350;42.134;24.708;2023-05-10T05:46:43;20.00;;;14.18;;
2680;SDS011;1350;42.134;24.708;2023-05-10T05:49:10;20.92;;;11.82;;
2680;SDS011;1350;42.134;24.708;2023-05-10T05:51:37;19.05;;;12.48;;
2680;SDS011;1350;42.134;24.708;2023-05-10T05:54:04;19.08;;;12.75;;
2680;SDS011;1350;42.134;24.708;2023-05-10T05:56:31;16.23;;;12.45;;
2680;SDS011;1350;42.134;24.708;2023-05-10T05:58:58;23.70;;;13.70;;
2680;SDS011;1350;42.134;24.708;2023-05-10T06:01:25;18.83;;;13.30;;
2680;SDS011;1350;42.134;24.708;2023-05-10T06:03:53;21.30;;;14.48;;
2680;SDS011;1350;42.134;24.708;2023-05-10T06:06:20;17.33;;;12.98;;
2680;SDS011;1350;42.134;24.708;2023-05-10T06:08:46;23.77;;;15.02;;
2680;SDS011;1350;42.134;24.708;2023-05-10T06:11:13;19.98;;;15.20;;
2680;SDS011;1350;42.134;24.708;2023-05-10T06:13:40;20.58;;;12.48;;
2680;SDS011;1350;42.134;24.708;2023-05-10T06:16:07;15.90;;;11.60;;
2680;SDS011;1350;42.134;24.708;2023-05-10T06:18:34;15.57;;;12.15;;
2680;SDS011;1350;42.134;24.708;2023-05-10T06:21:02;18.83;;;12.23;;
2680;SDS011;1350;42.134;24.708;2023-05-10T06:23:29;16.70;;;11.95;;
2680;SDS011;1350;42.134;24.708;2023-05-10T06:25:55;15.23;;;11.75;;
2680;SDS011;1350;42.134;24.708;2023-05-10T06:28:22;15.02;;;11.65;;
2680;SDS011;1350;42.134;24.708;2023-05-10T06:30:49;16.63;;;11.57;;
2680;SDS011;1350;42.134;24.708;2023-05-10T06:33:16;15.82;;;11.95;;
2680;SDS011;1350;42.134;24.708;2023-05-10T06:35:42;17.15;;;11.85;;
2680;SDS011;1350;42.134;24.708;2023-05-10T06:38:10;17.88;;;11.63;;
2680;SDS011;1350;42.134;24.708;2023-05-10T06:40:40;12.45;;;9.38;;
2680;SDS011;1350;42.134;24.708;2023-05-10T06:43:09;15.02;;;9.20;;
2680;SDS011;1350;42.134;24.708;2023-05-10T06:45:36;15.10;;;9.70;;
2680;SDS011;1350;42.134;24.708;2023-05-10T06:48:03;14.48;;;8.77;;
2680;SDS011;1350;42.134;24.708;2023-05-10T06:50:30;13.50;;;9.90;;
2680;SDS011;1350;42.134;24.708;2023-05-10T06:52:57;15.20;;;9.13;;
2680;SDS011;1350;42.134;24.708;2023-05-10T06:55:25;16.08;;;9.95;;
2680;SDS011;1350;42.134;24.708;2023-05-10T06:57:52;15.57;;;10.38;;
2680;SDS011;1350;42.134;24.708;2023-05-10T07:00:19;19.00;;;9.60;;
2680;SDS011;1350;42.134;24.708;2023-05-10T07:02:46;13.82;;;9.15;;
2680;SDS011;1350;42.134;24.708;2023-05-10T07:05:13;16.60;;;9.10;;
2680;SDS011;1350;42.134;24.708;2023-05-10T07:07:40;14.20;;;9.65;;
2680;SDS011;1350;42.134;24.708;2023-05-10T07:10:07;11.93;;;8.98;;
2680;SDS011;1350;42.134;24.708;2023-05-10T07:12:36;15.65;;;9.65;;
2680;SDS011;1350;42.134;24.708;2023-05-10T07:15:03;16.50;;;10.13;;
2680;SDS011;1350;42.134;24.708;2023-05-10T07:17:30;13.95;;;9.18;;
2680;SDS011;1350;42.134;24.708;2023-05-10T07:19:58;12.13;;;8.98;;
2680;SDS011;1350;42.134;24.708;2023-05-10T07:22:25;13.40;;;7.95;;
2680;SDS011;1350;42.134;24.708;2023-05-10T07:24:52;12.90;;;7.97;;
2680;SDS011;1350;42.134;24.708;2023-05-10T07:27:18;16.10;;;8.57;;
2680;SDS011;1350;42.134;24.708;2023-05-10T07:29:46;20.48;;;9.23;;
2680;SDS011;1350;42.134;24.708;2023-05-10T07:32:13;18.50;;;9.90;;
2680;SDS011;1350;42.134;24.708;2023-05-10T07:34:41;17.05;;;8.95;;
2680;SDS011;1350;42.134;24.708;2023-05-10T07:37:07;10.93;;;7.75;;
2680;SDS011;1350;42.134;24.708;2023-05-10T07:39:34;16.15;;;9.73;;
2680;SDS011;1350;42.134;24.708;2023-05-10T07:42:01;17.13;;;8.73;;
2680;SDS011;1350;42.134;24.708;2023-05-10T07:44:28;12.88;;;8.38;;
2680;SDS011;1350;42.134;24.708;2023-05-10T07:46:56;16.63;;;9.85;;
2680;SDS011;1350;42.134;24.708;2023-05-10T07:49:23;11.80;;;7.25;;
2680;SDS011;1350;42.134;24.708;2023-05-10T07:51:50;12.93;;;7.43;;
2680;SDS011;1350;42.134;24.708;2023-05-10T07:54:19;12.90;;;8.55;;
2680;SDS011;1350;42.134;24.708;2023-05-10T07:56:46;17.48;;;15.35;;
2680;SDS011;1350;42.134;24.708;2023-05-10T07:59:14;30.75;;;22.35;;
2680;SDS011;1350;42.134;24.708;2023-05-10T08:01:42;11.50;;;8.65;;
2680;SDS011;1350;42.134;24.708;2023-05-10T08:04:10;11.93;;;7.00;;
2680;SDS011;1350;42.134;24.708;2023-05-10T08:06:37;11.25;;;6.90;;
2680;SDS011;1350;42.134;24.708;2023-05-10T08:09:04;11.73;;;7.85;;
2680;SDS011;1350;42.134;24.708;2023-05-10T08:11:31;10.75;;;7.43;;
2680;SDS011;1350;42.134;24.708;2023-05-10T08:13:58;15.07;;;7.47;;
2680;SDS011;1350;42.134;24.708;2023-05-10T08:16:25;15.20;;;8.18;;
2680;SDS011;1350;42.134;24.708;2023-05-10T08:18:51;13.50;;;6.93;;
2680;SDS011;1350;42.134;24.708;2023-05-10T08:21:21;17.23;;;7.95;;
2680;SDS011;1350;42.134;24.708;2023-05-10T08:23:48;10.70;;;6.22;;
2680;SDS011;1350;42.134;24.708;2023-05-10T08:26:18;10.93;;;7.00;;
2680;SDS011;1350;42.134;24.708;2023-05-10T08:28:45;11.40;;;6.50;;
2680;SDS011;1350;42.134;24.708;2023-05-10T08:31:12;15.98;;;8.80;;
2680;SDS011;1350;42.134;24.708;2023-05-10T08:33:39;9.80;;;6.43;;
2680;SDS011;1350;42.134;24.708;2023-05-10T08:36:06;12.00;;;7.93;;
2680;SDS011;1350;42.134;24.708;2023-05-10T08:38:34;10.63;;;6.90;;
2680;SDS011;1350;42.134;24.708;2023-05-10T08:41:01;10.32;;;6.88;;
2680;SDS011;1350;42.134;24.708;2023-05-10T08:43:29;12.07;;;6.45;;
2680;SDS011;1350;42.134;24.708;2023-05-10T08:45:56;12.07;;;7.50;;
2680;SDS011;1350;42.134;24.708;2023-05-10T08:48:26;12.70;;;7.10;;
2680;SDS011;1350;42.134;24.708;2023-05-10T08:50:55;8.65;;;6.50;;
2680;SDS011;1350;42.134;24.708;2023-05-10T08:53:24;9.15;;;6.00;;
2680;SDS011;1350;42.134;24.708;2023-05-10T08:55:54;9.95;;;6.47;;
2680;SDS011;1350;42.134;24.708;2023-05-10T08:58:21;10.77;;;6.80;;
2680;SDS011;1350;42.134;24.708;2023-05-10T09:00:48;9.70;;;6.45;;
2680;SDS011;1350;42.134;24.708;2023-05-10T09:03:16;11.02;;;6.60;;
2680;SDS011;1350;42.134;24.708;2023-05-10T09:05:44;8.05;;;5.85;;
2680;SDS011;1350;42.134;24.708;2023-05-10T09:08:11;9.25;;;6.50;;
2680;SDS011;1350;42.134;24.708;2023-05-10T09:10:41;21.10;;;15.57;;
2680;SDS011;1350;42.134;24.708;2023-05-10T09:13:11;18.52;;;14.07;;
2680;SDS011;1350;42.134;24.708;2023-05-10T09:15:37;14.05;;;7.75;;
2680;SDS011;1350;42.134;24.708;2023-05-10T09:18:04;9.77;;;6.85;;
2680;SDS011;1350;42.134;24.708;2023-05-10T09:20:31;11.15;;;7.35;;
2680;SDS011;1350;42.134;24.708;2023-05-10T09:22:58;11.45;;;7.63;;
2680;SDS011;1350;42.134;24.708;2023-05-10T09:25:25;14.02;;;9.27;;
2680;SDS011;1350;42.134;24.708;2023-05-10T09:27:52;9.95;;;6.82;;
2680;SDS011;1350;42.134;24.708;2023-05-10T09:30:24;14.15;;;9.18;;
2680;SDS011;1350;42.134;24.708;2023-05-10T09:32:52;10.00;;;7.75;;
2680;SDS011;1350;42.134;24.708;2023-05-10T09:35:20;11.35;;;6.88;;
2680;SDS011;1350;42.134;24.708;2023-05-10T09:37:49;15.07;;;7.63;;
2680;SDS011;1350;42.134;24.708;2023-05-10T09:40:19;15.32;;;8.88;;
2680;SDS011;1350;42.134;24.708;2023-05-10T09:42:56;10.43;;;7.90;;
2680;SDS011;1350;42.134;24.708;2023-05-10T09:45:26;12.50;;;8.82;;
2680;SDS011;1350;42.134;24.708;2023-05-10T09:47:54;14.43;;;8.35;;
2680;SDS011;1350;42.134;24.708;2023-05-10T09:50:21;13.23;;;7.38;;
2680;SDS011;1350;42.134;24.708;2023-05-10T09:52:49;11.18;;;7.25;;
2680;SDS011;1350;42.134;24.708;2023-05-10T09:55:17;12.75;;;7.30;;
2680;SDS011;1350;42.134;24.708;2023-05-10T09:57:45;11.88;;;7.32;;
2680;SDS011;1350;42.134;24.708;2023-05-10T10:00:18;14.35;;;7.40;;
2680;SDS011;1350;42.134;24.708;2023-05-10T10:02:48;10.93;;;7.88;;
2680;SDS011;1350;42.134;24.708;2023-05-10T10:05:21;9.35;;;7.22;;
2680;SDS011;1350;42.134;24.708;2023-05-10T10:07:54;13.88;;;8.05;;
2680;SDS011;1350;42.134;24.708;2023-05-10T10:10:22;11.80;;;8.25;;
2680;SDS011;1350;42.134;24.708;2023-05-10T10:12:50;10.25;;;7.00;;
2680;SDS011;1350;42.134;24.708;2023-05-10T10:15:17;9.85;;;6.85;;
2680;SDS011;1350;42.134;24.708;2023-05-10T10:17:44;10.63;;;6.50;;
2680;SDS011;1350;42.134;24.708;2023-05-10T10:20:14;17.67;;;9.90;;
2680;SDS011;1350;42.134;24.708;2023-05-10T10:22:41;13.65;;;8.05;;
2680;SDS011;1350;42.134;24.708;2023-05-10T10:25:09;11.10;;;7.47;;
2680;SDS011;1350;42.134;24.708;2023-05-10T10:27:40;13.90;;;7.15;;
2680;SDS011;1350;42.134;24.708;2023-05-10T10:30:17;12.52;;;7.22;;
2680;SDS011;1350;42.134;24.708;2023-05-10T10:33:13;11.63;;;6.90;;
2680;SDS011;1350;42.134;24.708;2023-05-10T10:35:59;13.32;;;8.18;;
2680;SDS011;1350;42.134;24.708;2023-05-10T10:38:35;10.77;;;6.82;;
2680;SDS011;1350;42.134;24.708;2023-05-10T10:41:09;11.32;;;7.57;;
2680;SDS011;1350;42.134;24.708;2023-05-10T10:43:36;12.00;;;6.80;;
2680;SDS011;1350;42.134;24.708;2023-05-10T10:46:10;12.93;;;7.00;;
2680;SDS011;1350;42.134;24.708;2023-05-10T10:48:38;10.00;;;8.23;;
2680;SDS011;1350;42.134;24.708;2023-05-10T10:51:07;9.30;;;6.93;;
2680;SDS011;1350;42.134;24.708;2023-05-10T10:53:34;9.87;;;7.30;;
2680;SDS011;1350;42.134;24.708;2023-05-10T10:56:07;10.48;;;7.95;;
2680;SDS011;1350;42.134;24.708;2023-05-10T10:58:35;12.90;;;7.13;;
2680;SDS011;1350;42.134;24.708;2023-05-10T11:01:13;10.23;;;6.73;;
2680;SDS011;1350;42.134;24.708;2023-05-10T11:03:41;8.07;;;6.57;;
2680;SDS011;1350;42.134;24.708;2023-05-10T11:06:42;11.63;;;7.75;;
2680;SDS011;1350;42.134;24.708;2023-05-10T11:09:10;14.70;;;6.50;;
2680;SDS011;1350;42.134;24.708;2023-05-10T11:11:48;9.70;;;7.17;;
2680;SDS011;1350;42.134;24.708;2023-05-10T11:14:15;13.30;;;7.18;;
2680;SDS011;1350;42.134;24.708;2023-05-10T11:16:46;9.15;;;7.47;;
2680;SDS011;1350;42.134;24.708;2023-05-10T11:19:14;10.20;;;7.17;;
2680;SDS011;1350;42.134;24.708;2023-05-10T11:21:46;11.50;;;6.97;;
2680;SDS011;1350;42.134;24.708;2023-05-10T11:24:14;10.27;;;8.45;;
2680;SDS011;1350;42.134;24.708;2023-05-10T11:26:42;9.05;;;6.80;;
2680;SDS011;1350;42.134;24.708;2023-05-10T11:29:08;9.00;;;6.80;;
2680;SDS011;1350;42.134;24.708;2023-05-10T11:31:38;10.35;;;6.93;;
2680;SDS011;1350;42.134;24.708;2023-05-10T11:34:08;9.67;;;6.20;;
2680;SDS011;1350;42.134;24.708;2023-05-10T11:36:36;13.48;;;7.05;;
2680;SDS011;1350;42.134;24.708;2023-05-10T11:39:05;8.30;;;6.67;;
2680;SDS011;1350;42.134;24.708;2023-05-10T11:41:32;10.97;;;7.13;;
2680;SDS011;1350;42.134;24.708;2023-05-10T11:43:59;10.97;;;7.07;;
2680;SDS011;1350;42.134;24.708;2023-05-10T11:46:26;10.37;;;5.90;;
2680;SDS011;1350;42.134;24.708;2023-05-10T11:48:55;9.37;;;6.47;;
2680;SDS011;1350;42.134;24.708;2023-05-10T11:51:25;16.80;;;7.90;;
2680;SDS011;1350;42.134;24.708;2023-05-10T11:53:52;8.67;;;6.43;;
2680;SDS011;1350;42.134;24.708;2023-05-10T11:56:21;12.20;;;7.37;;
2680;SDS011;1350;42.134;24.708;2023-05-10T11:58:52;11.87;;;6.37;;
2680;SDS011;1350;42.134;24.708;2023-05-10T12:01:20;11.23;;;7.33;;
2680;SDS011;1350;42.134;24.708;2023-05-10T12:03:48;10.83;;;6.37;;
2680;SDS011;1350;42.134;24.708;2023-05-10T12:06:15;10.40;;;7.80;;
2680;SDS011;1350;42.134;24.708;2023-05-10T12:08:44;8.47;;;6.77;;
2680;SDS011;1350;42.134;24.708;2023-05-10T12:11:12;12.37;;;7.97;;
2680;SDS011;1350;42.134;24.708;2023-05-10T12:13:42;9.60;;;7.27;;
2680;SDS011;1350;42.134;24.708;2023-05-10T12:16:15;10.23;;;7.20;;
2680;SDS011;1350;42.134;24.708;2023-05-10T12:18:42;11.40;;;8.50;;
2680;SDS011;1350;42.134;24.708;2023-05-10T12:21:09;9.50;;;7.63;;
2680;SDS011;1350;42.134;24.708;2023-05-10T12:23:37;9.73;;;6.60;;
2680;SDS011;1350;42.134;24.708;2023-05-10T12:26:04;9.67;;;8.10;;
2680;SDS011;1350;42.134;24.708;2023-05-10T12:28:32;11.43;;;8.00;;
2680;SDS011;1350;42.134;24.708;2023-05-10T12:31:01;9.70;;;7.53;;
2680;SDS011;1350;42.134;24.708;2023-05-10T12:33:35;13.57;;;10.57;;
2680;SDS011;1350;42.134;24.708;2023-05-10T12:36:04;9.70;;;8.63;;
2680;SDS011;1350;42.134;24.708;2023-05-10T12:38:32;15.63;;;9.52;;
2680;SDS011;1350;42.134;24.708;2023-05-10T12:41:00;13.27;;;8.57;;
2680;SDS011;1350;42.134;24.708;2023-05-10T12:43:28;15.70;;;9.97;;
2680;SDS011;1350;42.134;24.708;2023-05-10T12:45:55;12.20;;;9.10;;
2680;SDS011;1350;42.134;24.708;2023-05-10T12:48:23;16.20;;;9.37;;
2680;SDS011;1350;42.134;24.708;2023-05-10T12:50:50;10.80;;;8.57;;
2680;SDS011;1350;42.134;24.708;2023-05-10T12:53:17;11.93;;;8.67;;
2680;SDS011;1350;42.134;24.708;2023-05-10T12:55:44;11.80;;;10.03;;
2680;SDS011;1350;42.134;24.708;2023-05-10T12:58:11;13.33;;;9.10;;
2680;SDS011;1350;42.134;24.708;2023-05-10T13:00:38;12.67;;;10.20;;
2680;SDS011;1350;42.134;24.708;2023-05-10T13:03:05;14.90;;;10.30;;
2680;SDS011;1350;42.134;24.708;2023-05-10T13:05:33;22.67;;;10.17;;
2680;SDS011;1350;42.134;24.708;2023-05-10T13:08:00;12.37;;;8.70;;
2680;SDS011;1350;42.134;24.708;2023-05-10T13:10:28;13.80;;;10.30;;
2680;SDS011;1350;42.134;24.708;2023-05-10T13:12:56;11.83;;;10.43;;
2680;SDS011;1350;42.134;24.708;2023-05-10T13:15:23;11.60;;;10.40;;
2680;SDS011;1350;42.134;24.708;2023-05-10T13:17:50;12.17;;;9.57;;
2680;SDS011;1350;42.134;24.708;2023-05-10T13:20:19;12.40;;;10.07;;
2680;SDS011;1350;42.134;24.708;2023-05-10T13:22:48;12.23;;;9.90;;
2680;SDS011;1350;42.134;24.708;2023-05-10T13:25:14;16.10;;;9.73;;
2680;SDS011;1350;42.134;24.708;2023-05-10T13:27:41;10.60;;;9.50;;
2680;SDS011;1350;42.134;24.708;2023-05-10T13:30:08;11.30;;;9.77;;
2680;SDS011;1350;42.134;24.708;2023-05-10T13:32:36;11.33;;;8.70;;
2680;SDS011;1350;42.134;24.708;2023-05-10T13:35:03;10.13;;;8.10;;
2680;SDS011;1350;42.134;24.708;2023-05-10T13:37:31;11.05;;;9.10;;
2680;SDS011;1350;42.134;24.708;2023-05-10T13:40:01;14.57;;;10.33;;
2680;SDS011;1350;42.134;24.708;2023-05-10T13:42:29;11.53;;;9.83;;
2680;SDS011;1350;42.134;24.708;2023-05-10T13:44:56;13.07;;;8.97;;
2680;SDS011;1350;42.134;24.708;2023-05-10T13:47:23;11.20;;;9.93;;
2680;SDS011;1350;42.134;24.708;2023-05-10T13:49:50;14.93;;;10.00;;
2680;SDS011;1350;42.134;24.708;2023-05-10T13:52:16;10.90;;;9.33;;
2680;SDS011;1350;42.134;24.708;2023-05-10T13:54:43;11.03;;;9.17;;
2680;SDS011;1350;42.134;24.708;2023-05-10T13:57:12;15.93;;;10.00;;
2680;SDS011;1350;42.134;24.708;2023-05-10T13:59:41;12.10;;;10.40;;
2680;SDS011;1350;42.134;24.708;2023-05-10T14:02:08;12.00;;;10.00;;
2680;SDS011;1350;42.134;24.708;2023-05-10T14:04:35;12.60;;;10.53;;
2680;SDS011;1350;42.134;24.708;2023-05-10T14:07:02;16.10;;;11.43;;
2680;SDS011;1350;42.134;24.708;2023-05-10T14:09:29;14.05;;;10.63;;
2680;SDS011;1350;42.134;24.708;2023-05-10T14:11:56;14.43;;;10.50;;
2680;SDS011;1350;42.134;24.708;2023-05-10T14:14:25;18.73;;;11.17;;
2680;SDS011;1350;42.134;24.708;2023-05-10T14:16:53;12.73;;;10.67;;
2680;SDS011;1350;42.134;24.708;2023-05-10T14:19:19;13.82;;;12.30;;
2680;SDS011;1350;42.134;24.708;2023-05-10T14:21:46;14.83;;;10.70;;
2680;SDS011;1350;42.134;24.708;2023-05-10T14:24:13;17.60;;;10.57;;
2680;SDS011;1350;42.134;24.708;2023-05-10T14:26:40;13.00;;;9.90;;
2680;SDS011;1350;42.134;24.708;2023-05-10T14:29:06;13.47;;;10.47;;
2680;SDS011;1350;42.134;24.708;2023-05-10T14:31:34;13.23;;;9.97;;
2680;SDS011;1350;42.134;24.708;2023-05-10T14:34:01;10.73;;;9.63;;
2680;SDS011;1350;42.134;24.708;2023-05-10T14:36:28;12.90;;;9.67;;
2680;SDS011;1350;42.134;24.708;2023-05-10T14:38:58;10.00;;;8.67;;
2680;SDS011;1350;42.134;24.708;2023-05-10T14:41:24;9.50;;;8.00;;
2680;SDS011;1350;42.134;24.708;2023-05-10T14:43:51;12.23;;;9.40;;
2680;SDS011;1350;42.134;24.708;2023-05-10T14:46:18;12.68;;;10.23;;
2680;SDS011;1350;42.134;24.708;2023-05-10T14:48:46;14.55;;;9.82;;
2680;SDS011;1350;42.134;24.708;2023-05-10T14:51:13;18.73;;;10.23;;
2680;SDS011;1350;42.134;24.708;2023-05-10T14:53:40;14.23;;;9.10;;